sensor_id;sensor_type;location;lat;lon;timestamp;P1;durP1;ratioP1;P2;durP2;ratioP2
18334;SDS011;9293;49.524;10.964;2023-02-28T00:01:41;4.80;;;2.83;;
18334;SDS011;9293;49.524;10.964;2023-02-28T00:04:08;3.58;;;2.78;;
18334;SDS011;9293;49.524;10.964;2023-02-28T00:06:36;5.00;;;3.00;;
18334;SDS011;9293;49.524;10.964;2023-02-28T00:09:04;7.07;;;3.35;;
18334;SDS011;9293;49.524;10.964;2023-02-28T00:11:32;5.07;;;3.35;;
18334;SDS011;9293;49.524;10.964;2023-02-28T00:14:00;5.47;;;3.50;;
18334;SDS011;9293;49.524;10.964;2023-02-28T00:16:28;8.73;;;3.45;;
18334;SDS011;9293;49.524;10.964;2023-02-28T00:18:56;4.60;;;3.05;;
18334;SDS011;9293;49.524;10.964;2023-02-28T00:21:24;5.13;;;3.45;;
18334;SDS011;9293;49.524;10.964;2023-02-28T00:23:53;7.35;;;3.72;;
18334;SDS011;9293;49.524;10.964;2023-02-28T00:26:21;5.00;;;3.25;;
18334;SDS011;9293;49.524;10.964;2023-02-28T00:28:51;4.72;;;3.22;;
18334;SDS011;9293;49.524;10.964;2023-02-28T00:31:23;5.88;;;3.90;;
18334;SDS011;9293;49.524;10.964;2023-02-28T00:33:54;7.03;;;3.97;;
18334;SDS011;9293;49.524;10.964;2023-02-28T00:36:22;6.22;;;3.45;;
18334;SDS011;9293;49.524;10.964;2023-02-28T00:38:50;6.10;;;3.67;;
18334;SDS011;9293;49.524;10.964;2023-02-28T00:41:18;6.05;;;3.60;;
18334;SDS011;9293;49.524;10.964;2023-02-28T00:43:46;5.95;;;3.03;;
18334;SDS011;9293;49.524;10.964;2023-02-28T00:46:14;4.50;;;3.15;;
18334;SDS011;9293;49.524;10.964;2023-02-28T00:48:42;6.72;;;3.25;;
18334;SDS011;9293;49.524;10.964;2023-02-28T00:51:10;8.35;;;3.20;;
18334;SDS011;9293;49.524;10.964;2023-02-28T00:53:38;6.38;;;3.58;;
18334;SDS011;9293;49.524;10.964;2023-02-28T00:56:06;6.70;;;3.97;;
18334;SDS011;9293;49.524;10.964;2023-02-28T00:58:34;6.22;;;4.03;;
18334;SDS011;9293;49.524;10.964;2023-02-28T01:01:02;5.50;;;3.30;;
18334;SDS011;9293;49.524;10.964;2023-02-28T01:03:30;5.97;;;3.60;;
18334;SDS011;9293;49.524;10.964;2023-02-28T01:05:58;6.15;;;3.95;;
18334;SDS011;9293;49.524;10.964;2023-02-28T01:08:26;7.38;;;4.25;;
18334;SDS011;9293;49.524;10.964;2023-02-28T01:10:54;6.97;;;3.85;;
18334;SDS011;9293;49.524;10.964;2023-02-28T01:13:22;5.75;;;3.38;;
18334;SDS011;9293;49.524;10.964;2023-02-28T01:15:51;6.45;;;3.58;;
18334;SDS011;9293;49.524;10.964;2023-02-28T01:18:23;6.00;;;4.72;;
18334;SDS011;9293;49.524;10.964;2023-02-28T01:20:52;5.40;;;3.42;;
18334;SDS011;9293;49.524;10.964;2023-02-28T01:23:21;6.43;;;3.80;;
18334;SDS011;9293;49.524;10.964;2023-02-28T01:25:51;5.88;;;4.05;;
18334;SDS011;9293;49.524;10.964;2023-02-28T01:28:19;6.15;;;3.72;;
18334;SDS011;9293;49.524;10.964;2023-02-28T01:30:49;5.95;;;3.13;;
18334;SDS011;9293;49.524;10.964;2023-02-28T01:33:18;4.38;;;3.20;;
18334;SDS011;9293;49.524;10.964;2023-02-28T01:35:46;6.40;;;3.50;;
18334;SDS011;9293;49.524;10.964;2023-02-28T01:38:14;7.68;;;4.07;;
18334;SDS011;9293;49.524;10.964;2023-02-28T01:40:48;5.22;;;3.53;;
18334;SDS011;9293;49.524;10.964;2023-02-28T01:43:20;6.82;;;3.35;;
18334;SDS011;9293;49.524;10.964;2023-02-28T01:45:48;5.43;;;3.10;;
18334;SDS011;9293;49.524;10.964;2023-02-28T01:48:17;5.38;;;3.25;;
18334;SDS011;9293;49.524;10.964;2023-02-28T01:50:45;5.88;;;3.17;;
18334;SDS011;9293;49.524;10.964;2023-02-28T01:53:16;7.80;;;3.67;;
18334;SDS011;9293;49.524;10.964;2023-02-28T01:55:59;7.43;;;3.10;;
18334;SDS011;9293;49.524;10.964;2023-02-28T01:58:31;7.50;;;5.18;;
18334;SDS011;9293;49.524;10.964;2023-02-28T02:00:59;10.10;;;7.00;;
18334;SDS011;9293;49.524;10.964;2023-02-28T02:03:27;15.70;;;9.90;;
18334;SDS011;9293;49.524;10.964;2023-02-28T02:05:56;16.35;;;11.65;;
18334;SDS011;9293;49.524;10.964;2023-02-28T02:08:25;17.80;;;11.50;;
18334;SDS011;9293;49.524;10.964;2023-02-28T02:10:55;14.65;;;10.13;;
18334;SDS011;9293;49.524;10.964;2023-02-28T02:16:45;10.13;;;6.13;;
18334;SDS011;9293;49.524;10.964;2023-02-28T02:36:08;6.30;;;3.92;;
18334;SDS011;9293;49.524;10.964;2023-02-28T02:41:38;5.55;;;3.67;;
18334;SDS011;9293;49.524;10.964;2023-02-28T02:44:52;6.75;;;4.20;;
18334;SDS011;9293;49.524;10.964;2023-02-28T02:47:20;7.55;;;4.15;;
18334;SDS011;9293;49.524;10.964;2023-02-28T02:49:52;6.53;;;3.78;;
18334;SDS011;9293;49.524;10.964;2023-02-28T02:52:25;7.25;;;3.85;;
18334;SDS011;9293;49.524;10.964;2023-02-28T02:55:08;6.70;;;4.68;;
18334;SDS011;9293;49.524;10.964;2023-02-28T02:57:40;7.47;;;3.77;;
18334;SDS011;9293;49.524;10.964;2023-02-28T03:00:12;8.13;;;4.22;;
18334;SDS011;9293;49.524;10.964;2023-02-28T03:02:45;6.88;;;3.95;;
18334;SDS011;9293;49.524;10.964;2023-02-28T03:06:00;6.30;;;4.05;;
18334;SDS011;9293;49.524;10.964;2023-02-28T03:08:17;6.63;;;4.28;;
18334;SDS011;9293;49.524;10.964;2023-02-28T03:10:46;6.93;;;3.97;;
18334;SDS011;9293;49.524;10.964;2023-02-28T03:15:59;6.40;;;4.05;;
18334;SDS011;9293;49.524;10.964;2023-02-28T03:24:57;7.18;;;4.25;;
18334;SDS011;9293;49.524;10.964;2023-02-28T03:30:24;6.60;;;4.65;;
18334;SDS011;9293;49.524;10.964;2023-02-28T03:33:14;6.15;;;4.35;;
18334;SDS011;9293;49.524;10.964;2023-02-28T03:35:57;6.75;;;4.55;;
18334;SDS011;9293;49.524;10.964;2023-02-28T03:38:40;10.18;;;4.93;;
18334;SDS011;9293;49.524;10.964;2023-02-28T03:41:19;7.43;;;4.80;;
18334;SDS011;9293;49.524;10.964;2023-02-28T03:44:00;6.45;;;4.20;;
18334;SDS011;9293;49.524;10.964;2023-02-28T03:46:34;5.55;;;4.50;;
18334;SDS011;9293;49.524;10.964;2023-02-28T03:49:08;8.88;;;4.78;;
18334;SDS011;9293;49.524;10.964;2023-02-28T03:51:48;6.55;;;4.35;;
18334;SDS011;9293;49.524;10.964;2023-02-28T03:54:19;7.05;;;4.75;;
18334;SDS011;9293;49.524;10.964;2023-02-28T03:56:58;6.10;;;4.40;;
18334;SDS011;9293;49.524;10.964;2023-02-28T03:59:32;7.38;;;4.63;;
18334;SDS011;9293;49.524;10.964;2023-02-28T04:02:09;6.93;;;4.80;;
18334;SDS011;9293;49.524;10.964;2023-02-28T04:04:37;8.63;;;4.72;;
18334;SDS011;9293;49.524;10.964;2023-02-28T04:07:08;7.80;;;4.50;;
18334;SDS011;9293;49.524;10.964;2023-02-28T04:09:39;7.15;;;4.85;;
18334;SDS011;9293;49.524;10.964;2023-02-28T04:12:07;6.03;;;4.47;;
18334;SDS011;9293;49.524;10.964;2023-02-28T04:14:35;9.07;;;5.38;;
18334;SDS011;9293;49.524;10.964;2023-02-28T04:17:03;8.85;;;5.25;;
18334;SDS011;9293;49.524;10.964;2023-02-28T04:19:31;8.35;;;5.22;;
18334;SDS011;9293;49.524;10.964;2023-02-28T04:21:59;6.88;;;5.03;;
18334;SDS011;9293;49.524;10.964;2023-02-28T04:24:27;8.57;;;5.60;;
18334;SDS011;9293;49.524;10.964;2023-02-28T04:26:56;8.88;;;5.70;;
18334;SDS011;9293;49.524;10.964;2023-02-28T04:29:26;9.35;;;5.15;;
18334;SDS011;9293;49.524;10.964;2023-02-28T04:32:00;8.88;;;5.50;;
18334;SDS011;9293;49.524;10.964;2023-02-28T04:34:29;8.52;;;5.40;;
18334;SDS011;9293;49.524;10.964;2023-02-28T04:36:59;8.73;;;5.43;;
18334;SDS011;9293;49.524;10.964;2023-02-28T04:39:38;7.72;;;5.20;;
18334;SDS011;9293;49.524;10.964;2023-02-28T04:42:09;8.10;;;4.95;;
18334;SDS011;9293;49.524;10.964;2023-02-28T04:44:37;8.98;;;5.43;;
18334;SDS011;9293;49.524;10.964;2023-02-28T04:47:05;9.05;;;5.63;;
18334;SDS011;9293;49.524;10.964;2023-02-28T04:49:33;7.68;;;5.03;;
18334;SDS011;9293;49.524;10.964;2023-02-28T04:52:01;8.15;;;5.20;;
18334;SDS011;9293;49.524;10.964;2023-02-28T04:54:29;8.93;;;5.63;;
18334;SDS011;9293;49.524;10.964;2023-02-28T04:56:57;10.82;;;6.53;;
18334;SDS011;9293;49.524;10.964;2023-02-28T04:59:25;10.40;;;5.90;;
18334;SDS011;9293;49.524;10.964;2023-02-28T05:01:53;7.75;;;5.70;;
18334;SDS011;9293;49.524;10.964;2023-02-28T05:04:21;8.48;;;6.03;;
18334;SDS011;9293;49.524;10.964;2023-02-28T05:06:49;9.77;;;6.13;;
18334;SDS011;9293;49.524;10.964;2023-02-28T05:09:17;10.02;;;6.70;;
18334;SDS011;9293;49.524;10.964;2023-02-28T05:11:45;12.75;;;7.97;;
18334;SDS011;9293;49.524;10.964;2023-02-28T05:14:13;11.25;;;7.13;;
18334;SDS011;9293;49.524;10.964;2023-02-28T05:16:44;12.52;;;7.57;;
18334;SDS011;9293;49.524;10.964;2023-02-28T05:19:14;8.75;;;6.03;;
18334;SDS011;9293;49.524;10.964;2023-02-28T05:21:49;11.10;;;6.60;;
18334;SDS011;9293;49.524;10.964;2023-02-28T05:24:21;8.05;;;5.85;;
18334;SDS011;9293;49.524;10.964;2023-02-28T05:26:52;10.48;;;5.80;;
18334;SDS011;9293;49.524;10.964;2023-02-28T05:29:21;8.90;;;6.05;;
18334;SDS011;9293;49.524;10.964;2023-02-28T05:31:49;9.88;;;6.50;;
18334;SDS011;9293;49.524;10.964;2023-02-28T05:34:17;11.48;;;7.00;;
18334;SDS011;9293;49.524;10.964;2023-02-28T05:36:45;9.52;;;6.18;;
18334;SDS011;9293;49.524;10.964;2023-02-28T05:39:13;13.75;;;7.00;;
18334;SDS011;9293;49.524;10.964;2023-02-28T05:41:41;8.90;;;6.30;;
18334;SDS011;9293;49.524;10.964;2023-02-28T05:44:10;12.80;;;6.57;;
18334;SDS011;9293;49.524;10.964;2023-02-28T05:46:38;10.23;;;6.05;;
18334;SDS011;9293;49.524;10.964;2023-02-28T05:49:06;9.30;;;5.88;;
18334;SDS011;9293;49.524;10.964;2023-02-28T05:51:34;9.48;;;6.05;;
18334;SDS011;9293;49.524;10.964;2023-02-28T05:54:03;17.95;;;9.15;;
18334;SDS011;9293;49.524;10.964;2023-02-28T05:56:31;16.30;;;10.13;;
18334;SDS011;9293;49.524;10.964;2023-02-28T05:59:01;14.52;;;9.30;;
18334;SDS011;9293;49.524;10.964;2023-02-28T06:01:42;13.65;;;7.72;;
18334;SDS011;9293;49.524;10.964;2023-02-28T06:04:19;13.90;;;7.30;;
18334;SDS011;9293;49.524;10.964;2023-02-28T06:07:00;11.48;;;6.53;;
18334;SDS011;9293;49.524;10.964;2023-02-28T06:09:32;9.43;;;6.55;;
18334;SDS011;9293;49.524;10.964;2023-02-28T06:12:00;10.77;;;6.57;;
18334;SDS011;9293;49.524;10.964;2023-02-28T06:14:31;11.95;;;6.60;;
18334;SDS011;9293;49.524;10.964;2023-02-28T06:17:00;12.80;;;7.03;;
18334;SDS011;9293;49.524;10.964;2023-02-28T06:19:29;10.95;;;6.43;;
18334;SDS011;9293;49.524;10.964;2023-02-28T06:21:59;8.90;;;6.20;;
18334;SDS011;9293;49.524;10.964;2023-02-28T06:24:27;10.73;;;7.07;;
18334;SDS011;9293;49.524;10.964;2023-02-28T06:26:55;9.20;;;6.32;;
18334;SDS011;9293;49.524;10.964;2023-02-28T06:29:23;12.30;;;7.45;;
18334;SDS011;9293;49.524;10.964;2023-02-28T06:31:51;10.45;;;7.30;;
18334;SDS011;9293;49.524;10.964;2023-02-28T06:34:19;14.82;;;6.72;;
18334;SDS011;9293;49.524;10.964;2023-02-28T06:36:49;11.00;;;7.00;;
18334;SDS011;9293;49.524;10.964;2023-02-28T06:39:18;8.85;;;6.60;;
18334;SDS011;9293;49.524;10.964;2023-02-28T06:41:46;10.60;;;6.65;;
18334;SDS011;9293;49.524;10.964;2023-02-28T06:44:21;13.88;;;7.43;;
18334;SDS011;9293;49.524;10.964;2023-02-28T06:46:50;8.93;;;6.40;;
18334;SDS011;9293;49.524;10.964;2023-02-28T06:49:18;10.13;;;6.32;;
18334;SDS011;9293;49.524;10.964;2023-02-28T06:51:46;12.60;;;7.13;;
18334;SDS011;9293;49.524;10.964;2023-02-28T06:54:14;12.43;;;7.50;;
18334;SDS011;9293;49.524;10.964;2023-02-28T06:56:42;10.52;;;7.00;;
18334;SDS011;9293;49.524;10.964;2023-02-28T06:59:10;10.55;;;6.38;;
18334;SDS011;9293;49.524;10.964;2023-02-28T07:01:38;11.43;;;6.13;;
18334;SDS011;9293;49.524;10.964;2023-02-28T07:04:07;13.88;;;6.60;;
18334;SDS011;9293;49.524;10.964;2023-02-28T07:06:35;11.38;;;6.30;;
18334;SDS011;9293;49.524;10.964;2023-02-28T07:09:03;10.52;;;5.80;;
18334;SDS011;9293;49.524;10.964;2023-02-28T07:11:31;9.25;;;6.07;;
18334;SDS011;9293;49.524;10.964;2023-02-28T07:13:59;11.95;;;6.93;;
18334;SDS011;9293;49.524;10.964;2023-02-28T07:16:27;15.90;;;6.82;;
18334;SDS011;9293;49.524;10.964;2023-02-28T07:18:55;11.32;;;6.35;;
18334;SDS011;9293;49.524;10.964;2023-02-28T07:21:23;11.23;;;7.18;;
18334;SDS011;9293;49.524;10.964;2023-02-28T07:23:51;10.85;;;7.13;;
18334;SDS011;9293;49.524;10.964;2023-02-28T07:26:20;10.98;;;7.43;;
18334;SDS011;9293;49.524;10.964;2023-02-28T07:28:48;10.38;;;6.95;;
18334;SDS011;9293;49.524;10.964;2023-02-28T07:31:16;9.35;;;6.57;;
18334;SDS011;9293;49.524;10.964;2023-02-28T07:33:45;10.07;;;6.00;;
18334;SDS011;9293;49.524;10.964;2023-02-28T07:36:15;9.70;;;6.55;;
18334;SDS011;9293;49.524;10.964;2023-02-28T07:41:21;9.38;;;6.30;;
18334;SDS011;9293;49.524;10.964;2023-02-28T07:43:55;8.88;;;6.47;;
18334;SDS011;9293;49.524;10.964;2023-02-28T07:46:25;9.35;;;6.60;;
18334;SDS011;9293;49.524;10.964;2023-02-28T07:48:56;18.23;;;7.93;;
18334;SDS011;9293;49.524;10.964;2023-02-28T07:51:26;15.75;;;6.85;;
18334;SDS011;9293;49.524;10.964;2023-02-28T07:53:55;11.35;;;6.75;;
18334;SDS011;9293;49.524;10.964;2023-02-28T07:56:24;9.02;;;6.65;;
18334;SDS011;9293;49.524;10.964;2023-02-28T07:58:53;7.57;;;6.55;;
18334;SDS011;9293;49.524;10.964;2023-02-28T08:01:21;7.97;;;6.28;;
18334;SDS011;9293;49.524;10.964;2023-02-28T08:03:50;8.45;;;6.45;;
18334;SDS011;9293;49.524;10.964;2023-02-28T08:06:19;9.10;;;6.18;;
18334;SDS011;9293;49.524;10.964;2023-02-28T08:08:48;10.27;;;6.88;;
18334;SDS011;9293;49.524;10.964;2023-02-28T08:11:16;8.52;;;6.50;;
18334;SDS011;9293;49.524;10.964;2023-02-28T08:13:45;9.93;;;6.60;;
18334;SDS011;9293;49.524;10.964;2023-02-28T08:16:13;7.60;;;6.15;;
18334;SDS011;9293;49.524;10.964;2023-02-28T08:18:50;8.57;;;6.25;;
18334;SDS011;9293;49.524;10.964;2023-02-28T08:21:19;7.13;;;6.18;;
18334;SDS011;9293;49.524;10.964;2023-02-28T08:23:48;12.38;;;9.15;;
18334;SDS011;9293;49.524;10.964;2023-02-28T08:26:19;11.65;;;6.80;;
18334;SDS011;9293;49.524;10.964;2023-02-28T08:28:49;8.88;;;6.85;;
18334;SDS011;9293;49.524;10.964;2023-02-28T08:31:17;11.20;;;6.20;;
18334;SDS011;9293;49.524;10.964;2023-02-28T08:33:45;19.77;;;7.03;;
18334;SDS011;9293;49.524;10.964;2023-02-28T08:36:16;8.38;;;6.57;;
18334;SDS011;9293;49.524;10.964;2023-02-28T08:38:44;7.97;;;6.00;;
18334;SDS011;9293;49.524;10.964;2023-02-28T08:41:20;7.82;;;6.60;;
18334;SDS011;9293;49.524;10.964;2023-02-28T08:43:51;8.13;;;7.00;;
18334;SDS011;9293;49.524;10.964;2023-02-28T08:46:20;9.07;;;6.45;;
18334;SDS011;9293;49.524;10.964;2023-02-28T08:48:51;9.25;;;6.10;;
18334;SDS011;9293;49.524;10.964;2023-02-28T08:51:21;7.75;;;6.38;;
18334;SDS011;9293;49.524;10.964;2023-02-28T08:53:54;8.75;;;6.50;;
18334;SDS011;9293;49.524;10.964;2023-02-28T08:56:25;7.70;;;6.40;;
18334;SDS011;9293;49.524;10.964;2023-02-28T08:58:55;8.10;;;6.13;;
18334;SDS011;9293;49.524;10.964;2023-02-28T09:01:28;7.97;;;6.70;;
18334;SDS011;9293;49.524;10.964;2023-02-28T09:03:57;10.60;;;6.95;;
18334;SDS011;9293;49.524;10.964;2023-02-28T09:06:26;8.05;;;6.30;;
18334;SDS011;9293;49.524;10.964;2023-02-28T09:08:57;11.15;;;6.45;;
18334;SDS011;9293;49.524;10.964;2023-02-28T09:11:27;9.35;;;6.55;;
18334;SDS011;9293;49.524;10.964;2023-02-28T09:13:55;9.10;;;6.40;;
18334;SDS011;9293;49.524;10.964;2023-02-28T09:16:25;9.55;;;6.70;;
18334;SDS011;9293;49.524;10.964;2023-02-28T09:19:01;7.30;;;5.75;;
18334;SDS011;9293;49.524;10.964;2023-02-28T09:21:32;9.00;;;6.68;;
18334;SDS011;9293;49.524;10.964;2023-02-28T09:24:03;10.07;;;6.70;;
18334;SDS011;9293;49.524;10.964;2023-02-28T09:26:31;8.32;;;6.50;;
18334;SDS011;9293;49.524;10.964;2023-02-28T09:31:41;8.25;;;6.43;;
18334;SDS011;9293;49.524;10.964;2023-02-28T09:34:09;10.55;;;6.38;;
18334;SDS011;9293;49.524;10.964;2023-02-28T09:36:37;8.13;;;6.43;;
18334;SDS011;9293;49.524;10.964;2023-02-28T09:39:12;9.52;;;6.88;;
18334;SDS011;9293;49.524;10.964;2023-02-28T09:41:43;7.05;;;6.20;;
18334;SDS011;9293;49.524;10.964;2023-02-28T09:47:27;8.23;;;5.85;;
18334;SDS011;9293;49.524;10.964;2023-02-28T09:53:14;7.63;;;6.20;;
18334;SDS011;9293;49.524;10.964;2023-02-28T09:56:03;8.85;;;6.78;;
18334;SDS011;9293;49.524;10.964;2023-02-28T10:01:24;8.23;;;6.80;;
18334;SDS011;9293;49.524;10.964;2023-02-28T10:03:55;10.80;;;5.93;;
18334;SDS011;9293;49.524;10.964;2023-02-28T10:06:33;6.90;;;5.97;;
18334;SDS011;9293;49.524;10.964;2023-02-28T10:11:42;6.75;;;6.05;;
18334;SDS011;9293;49.524;10.964;2023-02-28T10:14:18;8.13;;;5.90;;
18334;SDS011;9293;49.524;10.964;2023-02-28T10:16:50;6.85;;;6.15;;
18334;SDS011;9293;49.524;10.964;2023-02-28T10:22:01;6.07;;;5.07;;
18334;SDS011;9293;49.524;10.964;2023-02-28T10:24:39;7.20;;;5.63;;
18334;SDS011;9293;49.524;10.964;2023-02-28T10:27:14;8.10;;;5.88;;
18334;SDS011;9293;49.524;10.964;2023-02-28T10:29:44;6.22;;;5.55;;
18334;SDS011;9293;49.524;10.964;2023-02-28T10:32:21;8.32;;;6.15;;
18334;SDS011;9293;49.524;10.964;2023-02-28T10:34:57;7.15;;;5.57;;
18334;SDS011;9293;49.524;10.964;2023-02-28T10:37:25;8.32;;;6.05;;
18334;SDS011;9293;49.524;10.964;2023-02-28T10:39:54;6.82;;;6.03;;
18334;SDS011;9293;49.524;10.964;2023-02-28T10:42:29;8.73;;;6.75;;
18334;SDS011;9293;49.524;10.964;2023-02-28T10:45:04;8.10;;;6.65;;
18334;SDS011;9293;49.524;10.964;2023-02-28T10:47:40;8.10;;;6.35;;
18334;SDS011;9293;49.524;10.964;2023-02-28T10:53:07;7.32;;;5.82;;
18334;SDS011;9293;49.524;10.964;2023-02-28T10:55:58;7.95;;;6.00;;
18334;SDS011;9293;49.524;10.964;2023-02-28T10:58:57;9.05;;;6.88;;
18334;SDS011;9293;49.524;10.964;2023-02-28T11:01:39;9.20;;;6.63;;
18334;SDS011;9293;49.524;10.964;2023-02-28T11:06:56;9.52;;;6.72;;
18334;SDS011;9293;49.524;10.964;2023-02-28T11:09:32;10.18;;;6.70;;
18334;SDS011;9293;49.524;10.964;2023-02-28T11:12:21;7.25;;;6.30;;
18334;SDS011;9293;49.524;10.964;2023-02-28T11:17:33;7.05;;;6.10;;
18334;SDS011;9293;49.524;10.964;2023-02-28T11:20:02;9.70;;;5.93;;
18334;SDS011;9293;49.524;10.964;2023-02-28T11:22:36;7.03;;;5.35;;
18334;SDS011;9293;49.524;10.964;2023-02-28T11:25:16;6.85;;;5.63;;
18334;SDS011;9293;49.524;10.964;2023-02-28T11:27:53;8.23;;;5.03;;
18334;SDS011;9293;49.524;10.964;2023-02-28T11:30:34;8.43;;;5.63;;
18334;SDS011;9293;49.524;10.964;2023-02-28T11:35:49;8.70;;;5.85;;
18334;SDS011;9293;49.524;10.964;2023-02-28T11:38:19;6.88;;;5.20;;
18334;SDS011;9293;49.524;10.964;2023-02-28T11:43:34;7.95;;;5.38;;
18334;SDS011;9293;49.524;10.964;2023-02-28T11:51:27;6.35;;;4.85;;
18334;SDS011;9293;49.524;10.964;2023-02-28T11:57:00;5.07;;;4.57;;
18334;SDS011;9293;49.524;10.964;2023-02-28T12:05:34;10.65;;;6.07;;
18334;SDS011;9293;49.524;10.964;2023-02-28T12:08:36;7.50;;;5.60;;
18334;SDS011;9293;49.524;10.964;2023-02-28T12:13:48;6.38;;;4.88;;
18334;SDS011;9293;49.524;10.964;2023-02-28T12:16:20;5.80;;;5.07;;
18334;SDS011;9293;49.524;10.964;2023-02-28T12:19:16;7.25;;;5.35;;
18334;SDS011;9293;49.524;10.964;2023-02-28T12:27:53;7.65;;;5.45;;
18334;SDS011;9293;49.524;10.964;2023-02-28T12:30:25;9.35;;;6.07;;
18334;SDS011;9293;49.524;10.964;2023-02-28T12:33:07;7.45;;;5.70;;
18334;SDS011;9293;49.524;10.964;2023-02-28T12:35:48;8.65;;;6.30;;
18334;SDS011;9293;49.524;10.964;2023-02-28T12:38:27;7.53;;;5.53;;
18334;SDS011;9293;49.524;10.964;2023-02-28T12:43:32;7.63;;;5.63;;
18334;SDS011;9293;49.524;10.964;2023-02-28T12:46:17;7.03;;;5.63;;
18334;SDS011;9293;49.524;10.964;2023-02-28T12:48:53;10.15;;;6.05;;
18334;SDS011;9293;49.524;10.964;2023-02-28T12:51:25;9.20;;;5.93;;
18334;SDS011;9293;49.524;10.964;2023-02-28T13:10:58;10.25;;;6.15;;
18334;SDS011;9293;49.524;10.964;2023-02-28T13:13:29;8.85;;;6.25;;
18334;SDS011;9293;49.524;10.964;2023-02-28T13:16:04;8.93;;;6.22;;
18334;SDS011;9293;49.524;10.964;2023-02-28T13:18:36;7.57;;;6.38;;
18334;SDS011;9293;49.524;10.964;2023-02-28T13:21:17;8.68;;;6.70;;
18334;SDS011;9293;49.524;10.964;2023-02-28T13:34:34;9.68;;;6.25;;
18334;SDS011;9293;49.524;10.964;2023-02-28T13:47:29;11.25;;;9.25;;
18334;SDS011;9293;49.524;10.964;2023-02-28T13:55:38;8.65;;;6.75;;
18334;SDS011;9293;49.524;10.964;2023-02-28T14:07:09;7.00;;;5.32;;
18334;SDS011;9293;49.524;10.964;2023-02-28T14:09:55;8.60;;;6.00;;
18334;SDS011;9293;49.524;10.964;2023-02-28T14:17:55;9.32;;;6.20;;
18334;SDS011;9293;49.524;10.964;2023-02-28T14:20:26;8.52;;;6.50;;
18334;SDS011;9293;49.524;10.964;2023-02-28T14:23:06;7.25;;;5.60;;
18334;SDS011;9293;49.524;10.964;2023-02-28T14:35:09;8.27;;;6.45;;
18334;SDS011;9293;49.524;10.964;2023-02-28T14:37:56;8.40;;;6.50;;
18334;SDS011;9293;49.524;10.964;2023-02-28T14:40:29;11.93;;;7.20;;
18334;SDS011;9293;49.524;10.964;2023-02-28T14:43:01;8.20;;;6.60;;
18334;SDS011;9293;49.524;10.964;2023-02-28T14:45:32;7.35;;;5.85;;
18334;SDS011;9293;49.524;10.964;2023-02-28T14:48:03;10.65;;;7.63;;
18334;SDS011;9293;49.524;10.964;2023-02-28T14:50:36;10.05;;;7.30;;
18334;SDS011;9293;49.524;10.964;2023-02-28T14:53:05;10.07;;;7.18;;
18334;SDS011;9293;49.524;10.964;2023-02-28T14:55:46;9.02;;;7.13;;
18334;SDS011;9293;49.524;10.964;2023-02-28T14:58:22;8.45;;;6.60;;
18334;SDS011;9293;49.524;10.964;2023-02-28T15:00:56;10.98;;;6.80;;
18334;SDS011;9293;49.524;10.964;2023-02-28T15:03:36;9.63;;;6.90;;
18334;SDS011;9293;49.524;10.964;2023-02-28T15:06:13;8.73;;;7.00;;
18334;SDS011;9293;49.524;10.964;2023-02-28T15:08:44;9.68;;;6.97;;
18334;SDS011;9293;49.524;10.964;2023-02-28T15:11:16;8.00;;;6.53;;
18334;SDS011;9293;49.524;10.964;2023-02-28T15:13:47;9.93;;;7.43;;
18334;SDS011;9293;49.524;10.964;2023-02-28T15:16:25;10.25;;;6.50;;
18334;SDS011;9293;49.524;10.964;2023-02-28T15:19:02;10.70;;;7.47;;
18334;SDS011;9293;49.524;10.964;2023-02-28T15:21:36;7.85;;;6.30;;
18334;SDS011;9293;49.524;10.964;2023-02-28T15:24:10;11.88;;;6.70;;
18334;SDS011;9293;49.524;10.964;2023-02-28T15:27:00;10.63;;;7.10;;
18334;SDS011;9293;49.524;10.964;2023-02-28T15:29:36;10.13;;;7.43;;
18334;SDS011;9293;49.524;10.964;2023-02-28T15:35:24;11.48;;;7.30;;
18334;SDS011;9293;49.524;10.964;2023-02-28T15:38:02;10.77;;;7.10;;
18334;SDS011;9293;49.524;10.964;2023-02-28T15:40:55;11.52;;;8.32;;
18334;SDS011;9293;49.524;10.964;2023-02-28T15:43:31;12.80;;;8.10;;
18334;SDS011;9293;49.524;10.964;2023-02-28T15:46:02;11.30;;;9.00;;
18334;SDS011;9293;49.524;10.964;2023-02-28T15:48:32;11.70;;;7.20;;
18334;SDS011;9293;49.524;10.964;2023-02-28T15:51:14;11.02;;;6.90;;
18334;SDS011;9293;49.524;10.964;2023-02-28T15:56:28;10.23;;;6.55;;
18334;SDS011;9293;49.524;10.964;2023-02-28T15:58:59;9.82;;;7.10;;
18334;SDS011;9293;49.524;10.964;2023-02-28T16:01:32;12.90;;;7.22;;
18334;SDS011;9293;49.524;10.964;2023-02-28T16:04:17;12.38;;;8.05;;
18334;SDS011;9293;49.524;10.964;2023-02-28T16:07:00;9.98;;;7.28;;
18334;SDS011;9293;49.524;10.964;2023-02-28T16:09:30;9.48;;;7.40;;
18334;SDS011;9293;49.524;10.964;2023-02-28T16:12:01;11.32;;;7.60;;
18334;SDS011;9293;49.524;10.964;2023-02-28T16:14:30;13.75;;;8.45;;
18334;SDS011;9293;49.524;10.964;2023-02-28T16:17:06;12.10;;;7.90;;
18334;SDS011;9293;49.524;10.964;2023-02-28T16:19:43;11.85;;;8.85;;
18334;SDS011;9293;49.524;10.964;2023-02-28T16:22:11;9.75;;;7.75;;
18334;SDS011;9293;49.524;10.964;2023-02-28T16:24:39;14.40;;;7.82;;
18334;SDS011;9293;49.524;10.964;2023-02-28T16:27:11;11.20;;;7.20;;
18334;SDS011;9293;49.524;10.964;2023-02-28T16:29:48;11.13;;;7.25;;
18334;SDS011;9293;49.524;10.964;2023-02-28T16:32:17;11.10;;;7.22;;
18334;SDS011;9293;49.524;10.964;2023-02-28T16:34:45;10.40;;;7.90;;
18334;SDS011;9293;49.524;10.964;2023-02-28T16:37:14;13.05;;;8.50;;
18334;SDS011;9293;49.524;10.964;2023-02-28T16:39:54;12.18;;;8.35;;
18334;SDS011;9293;49.524;10.964;2023-02-28T16:42:25;10.98;;;8.07;;
18334;SDS011;9293;49.524;10.964;2023-02-28T16:44:56;10.50;;;8.00;;
18334;SDS011;9293;49.524;10.964;2023-02-28T16:47:28;13.73;;;8.73;;
18334;SDS011;9293;49.524;10.964;2023-02-28T16:49:59;14.00;;;8.68;;
18334;SDS011;9293;49.524;10.964;2023-02-28T16:52:27;12.45;;;8.60;;
18334;SDS011;9293;49.524;10.964;2023-02-28T16:54:55;14.25;;;9.20;;
18334;SDS011;9293;49.524;10.964;2023-02-28T16:57:23;15.35;;;9.45;;
18334;SDS011;9293;49.524;10.964;2023-02-28T16:59:54;12.02;;;8.35;;
18334;SDS011;9293;49.524;10.964;2023-02-28T17:02:25;13.23;;;9.02;;
18334;SDS011;9293;49.524;10.964;2023-02-28T17:04:55;13.63;;;8.90;;
18334;SDS011;9293;49.524;10.964;2023-02-28T17:07:23;13.90;;;8.55;;
18334;SDS011;9293;49.524;10.964;2023-02-28T17:09:51;11.10;;;8.35;;
18334;SDS011;9293;49.524;10.964;2023-02-28T17:12:19;11.50;;;8.40;;
18334;SDS011;9293;49.524;10.964;2023-02-28T17:14:47;13.85;;;8.70;;
18334;SDS011;9293;49.524;10.964;2023-02-28T17:17:17;13.00;;;8.07;;
18334;SDS011;9293;49.524;10.964;2023-02-28T17:19:48;14.23;;;9.38;;
18334;SDS011;9293;49.524;10.964;2023-02-28T17:22:16;11.73;;;8.50;;
18334;SDS011;9293;49.524;10.964;2023-02-28T17:24:45;13.65;;;9.02;;
18334;SDS011;9293;49.524;10.964;2023-02-28T17:27:13;13.82;;;8.77;;
18334;SDS011;9293;49.524;10.964;2023-02-28T17:29:41;15.77;;;9.07;;
18334;SDS011;9293;49.524;10.964;2023-02-28T17:32:09;12.02;;;8.45;;
18334;SDS011;9293;49.524;10.964;2023-02-28T17:34:44;12.98;;;8.38;;
18334;SDS011;9293;49.524;10.964;2023-02-28T17:37:13;15.88;;;9.57;;
18334;SDS011;9293;49.524;10.964;2023-02-28T17:39:41;14.48;;;9.30;;
18334;SDS011;9293;49.524;10.964;2023-02-28T17:42:08;12.88;;;8.90;;
18334;SDS011;9293;49.524;10.964;2023-02-28T17:44:36;15.40;;;9.07;;
18334;SDS011;9293;49.524;10.964;2023-02-28T17:47:05;14.23;;;9.32;;
18334;SDS011;9293;49.524;10.964;2023-02-28T17:49:33;14.05;;;9.60;;
18334;SDS011;9293;49.524;10.964;2023-02-28T17:52:01;16.52;;;9.70;;
18334;SDS011;9293;49.524;10.964;2023-02-28T17:54:29;15.30;;;9.98;;
18334;SDS011;9293;49.524;10.964;2023-02-28T17:56:57;16.63;;;9.90;;
18334;SDS011;9293;49.524;10.964;2023-02-28T17:59:26;15.98;;;9.70;;